sensor_id;sensor_type;location;lat;lon;timestamp;temperature;humidity
56729;DHT22;42612;52.232;7.560;2023-05-07T00:01:45;19.70;54.80
56729;DHT22;42612;52.232;7.560;2023-05-07T00:04:11;19.70;54.70
56729;DHT22;42612;52.232;7.560;2023-05-07T00:06:38;19.70;54.80
56729;DHT22;42612;52.232;7.560;2023-05-07T00:09:05;19.70;54.90
56729;DHT22;42612;52.232;7.560;2023-05-07T00:11:32;19.70;54.90
56729;DHT22;42612;52.232;7.560;2023-05-07T00:13:58;19.70;54.90
56729;DHT22;42612;52.232;7.560;2023-05-07T00:16:24;19.70;54.90
56729;DHT22;42612;52.232;7.560;2023-05-07T00:18:50;19.70;55.00
56729;DHT22;42612;52.232;7.560;2023-05-07T00:21:16;19.70;55.10
56729;DHT22;42612;52.232;7.560;2023-05-07T00:23:41;19.70;55.00
56729;DHT22;42612;52.232;7.560;2023-05-07T00:26:07;19.60;55.10
56729;DHT22;42612;52.232;7.560;2023-05-07T00:28:33;19.60;55.00
56729;DHT22;42612;52.232;7.560;2023-05-07T00:30:58;19.60;55.00
56729;DHT22;42612;52.232;7.560;2023-05-07T00:33:24;19.50;54.90
56729;DHT22;42612;52.232;7.560;2023-05-07T00:35:52;19.50;55.00
56729;DHT22;42612;52.232;7.560;2023-05-07T00:38:17;19.50;55.00
56729;DHT22;42612;52.232;7.560;2023-05-07T00:40:43;19.50;54.90
56729;DHT22;42612;52.232;7.560;2023-05-07T00:43:09;19.50;54.90
56729;DHT22;42612;52.232;7.560;2023-05-07T00:45:34;19.50;55.00
56729;DHT22;42612;52.232;7.560;2023-05-07T00:48:01;19.50;55.00
56729;DHT22;42612;52.232;7.560;2023-05-07T00:50:28;19.40;55.00
56729;DHT22;42612;52.232;7.560;2023-05-07T00:52:54;19.40;54.90
56729;DHT22;42612;52.232;7.560;2023-05-07T00:55:22;19.40;54.80
56729;DHT22;42612;52.232;7.560;2023-05-07T00:57:49;19.40;54.90
56729;DHT22;42612;52.232;7.560;2023-05-07T01:00:16;19.40;54.80
56729;DHT22;42612;52.232;7.560;2023-05-07T01:02:42;19.40;54.70
56729;DHT22;42612;52.232;7.560;2023-05-07T01:05:10;19.40;54.70
56729;DHT22;42612;52.232;7.560;2023-05-07T01:07:38;19.40;54.80
56729;DHT22;42612;52.232;7.560;2023-05-07T01:10:06;19.30;54.80
56729;DHT22;42612;52.232;7.560;2023-05-07T01:12:33;19.30;54.90
56729;DHT22;42612;52.232;7.560;2023-05-07T01:15:00;19.30;54.80
56729;DHT22;42612;52.232;7.560;2023-05-07T01:17:26;19.30;54.80
56729;DHT22;42612;52.232;7.560;2023-05-07T01:19:52;19.20;54.70
56729;DHT22;42612;52.232;7.560;2023-05-07T01:22:32;19.20;54.70
56729;DHT22;42612;52.232;7.560;2023-05-07T01:24:59;19.20;54.80
56729;DHT22;42612;52.232;7.560;2023-05-07T01:27:27;19.20;54.70
56729;DHT22;42612;52.232;7.560;2023-05-07T01:29:53;19.10;54.60
56729;DHT22;42612;52.232;7.560;2023-05-07T01:32:28;19.10;54.60
56729;DHT22;42612;52.232;7.560;2023-05-07T01:34:55;19.10;54.80
56729;DHT22;42612;52.232;7.560;2023-05-07T01:37:23;19.10;54.70
56729;DHT22;42612;52.232;7.560;2023-05-07T01:39:50;19.00;54.70
56729;DHT22;42612;52.232;7.560;2023-05-07T01:42:16;19.00;54.70
56729;DHT22;42612;52.232;7.560;2023-05-07T01:44:41;19.00;54.70
56729;DHT22;42612;52.232;7.560;2023-05-07T01:47:08;18.90;54.70
56729;DHT22;42612;52.232;7.560;2023-05-07T01:49:34;18.90;54.90
56729;DHT22;42612;52.232;7.560;2023-05-07T01:52:00;18.90;54.90
56729;DHT22;42612;52.232;7.560;2023-05-07T01:54:27;18.90;55.70
56729;DHT22;42612;52.232;7.560;2023-05-07T01:56:53;18.90;54.90
56729;DHT22;42612;52.232;7.560;2023-05-07T01:59:20;18.90;54.80
56729;DHT22;42612;52.232;7.560;2023-05-07T02:01:45;18.90;54.80
56729;DHT22;42612;52.232;7.560;2023-05-07T02:04:11;18.80;54.70
56729;DHT22;42612;52.232;7.560;2023-05-07T02:06:37;18.80;54.70
56729;DHT22;42612;52.232;7.560;2023-05-07T02:09:02;18.80;54.80
56729;DHT22;42612;52.232;7.560;2023-05-07T02:11:28;18.80;54.80
56729;DHT22;42612;52.232;7.560;2023-05-07T02:13:54;18.70;54.80
56729;DHT22;42612;52.232;7.560;2023-05-07T02:16:20;18.70;54.80
56729;DHT22;42612;52.232;7.560;2023-05-07T02:18:46;18.70;54.80
56729;DHT22;42612;52.232;7.560;2023-05-07T02:21:12;18.70;54.90
56729;DHT22;42612;52.232;7.560;2023-05-07T02:23:37;18.70;54.90
56729;DHT22;42612;52.232;7.560;2023-05-07T02:26:04;18.60;54.70
56729;DHT22;42612;52.232;7.560;2023-05-07T02:28:30;18.60;54.80
56729;DHT22;42612;52.232;7.560;2023-05-07T02:30:55;18.60;55.50
56729;DHT22;42612;52.232;7.560;2023-05-07T02:33:23;18.50;54.80
56729;DHT22;42612;52.232;7.560;2023-05-07T02:35:49;18.50;54.80
56729;DHT22;42612;52.232;7.560;2023-05-07T02:38:17;18.50;54.80
56729;DHT22;42612;52.232;7.560;2023-05-07T02:40:43;18.50;54.90
56729;DHT22;42612;52.232;7.560;2023-05-07T02:43:08;18.50;55.00
56729;DHT22;42612;52.232;7.560;2023-05-07T02:45:34;18.50;55.00
56729;DHT22;42612;52.232;7.560;2023-05-07T02:48:01;18.40;55.00
56729;DHT22;42612;52.232;7.560;2023-05-07T02:50:27;18.40;55.00
56729;DHT22;42612;52.232;7.560;2023-05-07T02:52:52;18.40;55.10
56729;DHT22;42612;52.232;7.560;2023-05-07T02:55:18;18.40;55.10
56729;DHT22;42612;52.232;7.560;2023-05-07T02:57:44;18.40;55.10
56729;DHT22;42612;52.232;7.560;2023-05-07T03:00:17;18.40;55.00
56729;DHT22;42612;52.232;7.560;2023-05-07T03:02:44;18.40;55.00
56729;DHT22;42612;52.232;7.560;2023-05-07T03:05:10;18.40;54.90
56729;DHT22;42612;52.232;7.560;2023-05-07T03:07:37;18.40;54.90
56729;DHT22;42612;52.232;7.560;2023-05-07T03:10:03;18.40;55.00
56729;DHT22;42612;52.232;7.560;2023-05-07T03:12:29;18.30;54.90
56729;DHT22;42612;52.232;7.560;2023-05-07T03:14:55;18.30;54.90
56729;DHT22;42612;52.232;7.560;2023-05-07T03:17:21;18.20;54.90
56729;DHT22;42612;52.232;7.560;2023-05-07T03:19:47;18.30;55.00
56729;DHT22;42612;52.232;7.560;2023-05-07T03:22:12;18.20;55.70
56729;DHT22;42612;52.232;7.560;2023-05-07T03:24:38;18.20;55.10
56729;DHT22;42612;52.232;7.560;2023-05-07T03:27:04;18.20;55.10
56729;DHT22;42612;52.232;7.560;2023-05-07T03:29:29;18.20;55.20
56729;DHT22;42612;52.232;7.560;2023-05-07T03:31:55;18.20;55.30
56729;DHT22;42612;52.232;7.560;2023-05-07T03:34:21;18.20;55.30
56729;DHT22;42612;52.232;7.560;2023-05-07T03:36:50;18.10;55.30
56729;DHT22;42612;52.232;7.560;2023-05-07T03:39:16;18.20;55.40
56729;DHT22;42612;52.232;7.560;2023-05-07T03:41:42;18.10;55.30
56729;DHT22;42612;52.232;7.560;2023-05-07T03:44:08;18.10;55.30
56729;DHT22;42612;52.232;7.560;2023-05-07T03:46:34;18.10;55.30
56729;DHT22;42612;52.232;7.560;2023-05-07T03:49:00;18.10;55.30
56729;DHT22;42612;52.232;7.560;2023-05-07T03:51:25;18.10;55.30
56729;DHT22;42612;52.232;7.560;2023-05-07T03:53:52;18.10;55.30
56729;DHT22;42612;52.232;7.560;2023-05-07T03:56:22;18.10;55.30
56729;DHT22;42612;52.232;7.560;2023-05-07T03:58:51;18.10;55.30
56729;DHT22;42612;52.232;7.560;2023-05-07T04:01:17;18.10;55.40
56729;DHT22;42612;52.232;7.560;2023-05-07T04:03:43;18.10;55.40
56729;DHT22;42612;52.232;7.560;2023-05-07T04:06:09;18.10;55.40
56729;DHT22;42612;52.232;7.560;2023-05-07T04:08:34;18.10;55.50
56729;DHT22;42612;52.232;7.560;2023-05-07T04:11:00;18.00;55.40
56729;DHT22;42612;52.232;7.560;2023-05-07T04:13:26;18.10;55.50
56729;DHT22;42612;52.232;7.560;2023-05-07T04:15:53;18.10;55.50
56729;DHT22;42612;52.232;7.560;2023-05-07T04:18:20;18.10;55.60
56729;DHT22;42612;52.232;7.560;2023-05-07T04:20:47;18.10;55.50
56729;DHT22;42612;52.232;7.560;2023-05-07T04:23:13;18.10;55.50
56729;DHT22;42612;52.232;7.560;2023-05-07T04:25:39;18.00;55.40
56729;DHT22;42612;52.232;7.560;2023-05-07T04:28:04;18.00;55.50
56729;DHT22;42612;52.232;7.560;2023-05-07T04:30:31;18.10;55.50
56729;DHT22;42612;52.232;7.560;2023-05-07T04:32:57;18.10;55.60
56729;DHT22;42612;52.232;7.560;2023-05-07T04:35:22;18.00;55.60
56729;DHT22;42612;52.232;7.560;2023-05-07T04:37:48;18.10;55.70
56729;DHT22;42612;52.232;7.560;2023-05-07T04:40:14;18.10;55.70
56729;DHT22;42612;52.232;7.560;2023-05-07T04:42:40;18.10;55.70
56729;DHT22;42612;52.232;7.560;2023-05-07T04:45:06;18.00;55.70
56729;DHT22;42612;52.232;7.560;2023-05-07T04:47:31;18.00;55.80
56729;DHT22;42612;52.232;7.560;2023-05-07T04:49:58;18.00;55.80
56729;DHT22;42612;52.232;7.560;2023-05-07T04:52:24;18.10;55.90
56729;DHT22;42612;52.232;7.560;2023-05-07T04:54:49;18.00;55.80
56729;DHT22;42612;52.232;7.560;2023-05-07T04:57:15;18.10;56.00
56729;DHT22;42612;52.232;7.560;2023-05-07T04:59:43;18.10;55.70
56729;DHT22;42612;52.232;7.560;2023-05-07T05:02:29;18.10;55.80
56729;DHT22;42612;52.232;7.560;2023-05-07T05:04:54;18.10;55.80
56729;DHT22;42612;52.232;7.560;2023-05-07T05:07:20;18.10;55.60
56729;DHT22;42612;52.232;7.560;2023-05-07T05:09:46;18.10;55.70
56729;DHT22;42612;52.232;7.560;2023-05-07T05:12:11;18.00;55.70
56729;DHT22;42612;52.232;7.560;2023-05-07T05:14:37;18.00;55.80
56729;DHT22;42612;52.232;7.560;2023-05-07T05:17:03;18.00;55.80
56729;DHT22;42612;52.232;7.560;2023-05-07T05:19:28;18.00;55.90
56729;DHT22;42612;52.232;7.560;2023-05-07T05:21:54;18.10;55.90
56729;DHT22;42612;52.232;7.560;2023-05-07T05:24:20;18.00;55.80
56729;DHT22;42612;52.232;7.560;2023-05-07T05:26:46;18.00;55.90
56729;DHT22;42612;52.232;7.560;2023-05-07T05:29:11;18.10;55.90
56729;DHT22;42612;52.232;7.560;2023-05-07T05:31:37;18.10;55.90
56729;DHT22;42612;52.232;7.560;2023-05-07T05:34:03;18.10;55.90
56729;DHT22;42612;52.232;7.560;2023-05-07T05:36:29;18.10;56.00
56729;DHT22;42612;52.232;7.560;2023-05-07T05:38:56;18.10;56.00
56729;DHT22;42612;52.232;7.560;2023-05-07T05:41:21;18.10;56.00
56729;DHT22;42612;52.232;7.560;2023-05-07T05:43:48;18.10;56.00
56729;DHT22;42612;52.232;7.560;2023-05-07T05:46:14;18.10;56.00
56729;DHT22;42612;52.232;7.560;2023-05-07T05:48:40;18.10;56.00
56729;DHT22;42612;52.232;7.560;2023-05-07T05:51:06;18.10;56.00
56729;DHT22;42612;52.232;7.560;2023-05-07T05:53:31;18.10;56.00
56729;DHT22;42612;52.232;7.560;2023-05-07T05:55:57;18.10;56.10
56729;DHT22;42612;52.232;7.560;2023-05-07T05:58:23;18.20;56.10
56729;DHT22;42612;52.232;7.560;2023-05-07T06:00:48;18.20;56.00
56729;DHT22;42612;52.232;7.560;2023-05-07T06:03:17;18.20;56.00
56729;DHT22;42612;52.232;7.560;2023-05-07T06:05:43;18.30;56.10
56729;DHT22;42612;52.232;7.560;2023-05-07T06:08:08;18.20;56.00
56729;DHT22;42612;52.232;7.560;2023-05-07T06:10:36;18.20;56.00
56729;DHT22;42612;52.232;7.560;2023-05-07T06:13:02;18.30;56.10
56729;DHT22;42612;52.232;7.560;2023-05-07T06:15:28;18.30;56.00
56729;DHT22;42612;52.232;7.560;2023-05-07T06:17:53;18.30;56.00
56729;DHT22;42612;52.232;7.560;2023-05-07T06:20:21;18.30;56.00
56729;DHT22;42612;52.232;7.560;2023-05-07T06:22:46;18.30;56.10
56729;DHT22;42612;52.232;7.560;2023-05-07T06:25:12;18.30;56.00
56729;DHT22;42612;52.232;7.560;2023-05-07T06:27:38;18.30;56.20
56729;DHT22;42612;52.232;7.560;2023-05-07T06:30:07;18.30;56.00
56729;DHT22;42612;52.232;7.560;2023-05-07T06:32:33;18.40;56.00
56729;DHT22;42612;52.232;7.560;2023-05-07T06:34:59;18.40;56.00
56729;DHT22;42612;52.232;7.560;2023-05-07T06:37:25;18.40;56.10
56729;DHT22;42612;52.232;7.560;2023-05-07T06:39:51;18.40;56.20
56729;DHT22;42612;52.232;7.560;2023-05-07T06:42:16;18.50;56.20
56729;DHT22;42612;52.232;7.560;2023-05-07T06:44:42;18.50;56.20
56729;DHT22;42612;52.232;7.560;2023-05-07T06:47:07;18.50;56.30
56729;DHT22;42612;52.232;7.560;2023-05-07T06:49:33;18.60;56.30
56729;DHT22;42612;52.232;7.560;2023-05-07T06:51:59;18.60;56.20
56729;DHT22;42612;52.232;7.560;2023-05-07T06:54:25;18.70;56.30
56729;DHT22;42612;52.232;7.560;2023-05-07T06:56:50;18.70;56.10
56729;DHT22;42612;52.232;7.560;2023-05-07T06:59:16;18.70;56.00
56729;DHT22;42612;52.232;7.560;2023-05-07T07:01:42;18.80;55.90
56729;DHT22;42612;52.232;7.560;2023-05-07T07:04:07;18.80;55.80
56729;DHT22;42612;52.232;7.560;2023-05-07T07:06:33;18.80;55.70
56729;DHT22;42612;52.232;7.560;2023-05-07T07:08:59;18.80;55.70
56729;DHT22;42612;52.232;7.560;2023-05-07T07:11:25;18.80;55.70
56729;DHT22;42612;52.232;7.560;2023-05-07T07:13:51;18.80;55.60
56729;DHT22;42612;52.232;7.560;2023-05-07T07:16:20;18.80;55.60
56729;DHT22;42612;52.232;7.560;2023-05-07T07:18:46;18.90;55.70
56729;DHT22;42612;52.232;7.560;2023-05-07T07:21:12;18.90;55.70
56729;DHT22;42612;52.232;7.560;2023-05-07T07:23:37;18.90;55.70
56729;DHT22;42612;52.232;7.560;2023-05-07T07:26:03;18.90;55.60
56729;DHT22;42612;52.232;7.560;2023-05-07T07:28:29;18.90;55.70
56729;DHT22;42612;52.232;7.560;2023-05-07T07:30:55;18.90;55.60
56729;DHT22;42612;52.232;7.560;2023-05-07T07:33:20;19.00;55.60
56729;DHT22;42612;52.232;7.560;2023-05-07T07:35:46;19.00;55.60
56729;DHT22;42612;52.232;7.560;2023-05-07T07:38:12;19.00;55.50
56729;DHT22;42612;52.232;7.560;2023-05-07T07:40:37;19.00;55.50
56729;DHT22;42612;52.232;7.560;2023-05-07T07:43:04;19.10;55.60
56729;DHT22;42612;52.232;7.560;2023-05-07T07:45:30;19.00;55.40
56729;DHT22;42612;52.232;7.560;2023-05-07T07:47:55;19.10;55.30
56729;DHT22;42612;52.232;7.560;2023-05-07T07:50:21;19.10;55.20
56729;DHT22;42612;52.232;7.560;2023-05-07T07:52:48;19.10;55.20
56729;DHT22;42612;52.232;7.560;2023-05-07T07:55:14;19.10;55.30
56729;DHT22;42612;52.232;7.560;2023-05-07T07:57:43;19.10;55.30
56729;DHT22;42612;52.232;7.560;2023-05-07T08:00:09;19.10;55.30
56729;DHT22;42612;52.232;7.560;2023-05-07T08:02:35;19.20;55.30
56729;DHT22;42612;52.232;7.560;2023-05-07T08:05:01;19.20;55.30
56729;DHT22;42612;52.232;7.560;2023-05-07T08:07:26;19.20;55.30
56729;DHT22;42612;52.232;7.560;2023-05-07T08:09:52;19.20;55.30
56729;DHT22;42612;52.232;7.560;2023-05-07T08:12:18;19.20;55.40
56729;DHT22;42612;52.232;7.560;2023-05-07T08:14:44;19.30;55.60
56729;DHT22;42612;52.232;7.560;2023-05-07T08:17:10;19.30;55.60
56729;DHT22;42612;52.232;7.560;2023-05-07T08:19:36;19.40;55.70
56729;DHT22;42612;52.232;7.560;2023-05-07T08:22:02;19.40;55.60
56729;DHT22;42612;52.232;7.560;2023-05-07T08:24:29;19.50;55.40
56729;DHT22;42612;52.232;7.560;2023-05-07T08:26:55;19.50;55.40
56729;DHT22;42612;52.232;7.560;2023-05-07T08:29:21;19.50;55.30
56729;DHT22;42612;52.232;7.560;2023-05-07T08:31:46;19.60;55.30
56729;DHT22;42612;52.232;7.560;2023-05-07T08:34:12;19.60;55.30
56729;DHT22;42612;52.232;7.560;2023-05-07T08:36:38;19.70;55.30
56729;DHT22;42612;52.232;7.560;2023-05-07T08:39:03;19.70;55.20
56729;DHT22;42612;52.232;7.560;2023-05-07T08:41:30;19.70;55.10
56729;DHT22;42612;52.232;7.560;2023-05-07T08:43:58;19.80;55.20
56729;DHT22;42612;52.232;7.560;2023-05-07T08:46:25;19.80;55.00
56729;DHT22;42612;52.232;7.560;2023-05-07T08:48:56;19.80;55.20
56729;DHT22;42612;52.232;7.560;2023-05-07T08:51:22;19.90;55.00
56729;DHT22;42612;52.232;7.560;2023-05-07T08:53:52;20.00;55.00
56729;DHT22;42612;52.232;7.560;2023-05-07T08:56:18;20.00;55.10
56729;DHT22;42612;52.232;7.560;2023-05-07T08:58:45;20.00;54.80
56729;DHT22;42612;52.232;7.560;2023-05-07T09:01:15;20.10;54.80
56729;DHT22;42612;52.232;7.560;2023-05-07T09:03:44;20.10;54.60
56729;DHT22;42612;52.232;7.560;2023-05-07T09:06:11;20.20;54.70
56729;DHT22;42612;52.232;7.560;2023-05-07T09:08:37;20.20;54.70
56729;DHT22;42612;52.232;7.560;2023-05-07T09:11:02;20.20;54.70
56729;DHT22;42612;52.232;7.560;2023-05-07T09:13:29;20.20;54.80
56729;DHT22;42612;52.232;7.560;2023-05-07T09:15:55;20.20;54.60
56729;DHT22;42612;52.232;7.560;2023-05-07T09:18:21;20.30;54.70
56729;DHT22;42612;52.232;7.560;2023-05-07T09:20:49;20.30;54.70
56729;DHT22;42612;52.232;7.560;2023-05-07T09:23:14;20.30;54.60
56729;DHT22;42612;52.232;7.560;2023-05-07T09:25:40;20.40;54.60
56729;DHT22;42612;52.232;7.560;2023-05-07T09:28:06;20.50;54.50
56729;DHT22;42612;52.232;7.560;2023-05-07T09:30:33;20.50;54.60
56729;DHT22;42612;52.232;7.560;2023-05-07T09:33:01;20.50;54.50
56729;DHT22;42612;52.232;7.560;2023-05-07T09:35:28;20.60;54.50
56729;DHT22;42612;52.232;7.560;2023-05-07T09:37:58;20.60;54.50
56729;DHT22;42612;52.232;7.560;2023-05-07T09:40:27;20.70;54.30
56729;DHT22;42612;52.232;7.560;2023-05-07T09:42:54;20.80;54.30
56729;DHT22;42612;52.232;7.560;2023-05-07T09:45:25;20.80;54.20
56729;DHT22;42612;52.232;7.560;2023-05-07T09:47:56;20.90;54.50
56729;DHT22;42612;52.232;7.560;2023-05-07T09:50:34;20.90;54.40
56729;DHT22;42612;52.232;7.560;2023-05-07T09:53:03;21.00;54.30
56729;DHT22;42612;52.232;7.560;2023-05-07T09:55:29;21.10;54.30
56729;DHT22;42612;52.232;7.560;2023-05-07T09:57:55;21.10;54.10
56729;DHT22;42612;52.232;7.560;2023-05-07T10:00:22;21.20;54.00
56729;DHT22;42612;52.232;7.560;2023-05-07T10:02:49;21.30;54.00
56729;DHT22;42612;52.232;7.560;2023-05-07T10:05:18;21.30;53.90
56729;DHT22;42612;52.232;7.560;2023-05-07T10:07:45;21.40;53.70
56729;DHT22;42612;52.232;7.560;2023-05-07T10:10:12;21.40;53.80
56729;DHT22;42612;52.232;7.560;2023-05-07T10:12:38;21.50;53.80
56729;DHT22;42612;52.232;7.560;2023-05-07T10:15:09;21.50;53.80
56729;DHT22;42612;52.232;7.560;2023-05-07T10:17:39;21.60;53.80
56729;DHT22;42612;52.232;7.560;2023-05-07T10:20:06;21.70;53.70
56729;DHT22;42612;52.232;7.560;2023-05-07T10:22:47;21.70;53.50
56729;DHT22;42612;52.232;7.560;2023-05-07T10:25:29;21.80;53.20
56729;DHT22;42612;52.232;7.560;2023-05-07T10:27:59;21.90;52.70
56729;DHT22;42612;52.232;7.560;2023-05-07T10:33:32;22.10;52.90
56729;DHT22;42612;52.232;7.560;2023-05-07T10:36:00;22.20;53.20
56729;DHT22;42612;52.232;7.560;2023-05-07T10:38:29;22.20;53.00
56729;DHT22;42612;52.232;7.560;2023-05-07T10:40:55;22.30;53.10
56729;DHT22;42612;52.232;7.560;2023-05-07T10:43:21;22.40;53.00
56729;DHT22;42612;52.232;7.560;2023-05-07T10:46:10;22.40;52.60
56729;DHT22;42612;52.232;7.560;2023-05-07T10:49:06;22.50;52.30
56729;DHT22;42612;52.232;7.560;2023-05-07T10:51:33;22.60;52.30
56729;DHT22;42612;52.232;7.560;2023-05-07T10:56:38;22.80;51.50
56729;DHT22;42612;52.232;7.560;2023-05-07T11:02:00;22.90;51.90
56729;DHT22;42612;52.232;7.560;2023-05-07T11:04:32;23.00;51.30
56729;DHT22;42612;52.232;7.560;2023-05-07T11:07:23;23.00;51.80
56729;DHT22;42612;52.232;7.560;2023-05-07T11:17:56;23.30;51.40
56729;DHT22;42612;52.232;7.560;2023-05-07T11:20:45;23.40;50.40
56729;DHT22;42612;52.232;7.560;2023-05-07T11:26:09;23.60;50.20
56729;DHT22;42612;52.232;7.560;2023-05-07T11:28:38;23.70;51.30
56729;DHT22;42612;52.232;7.560;2023-05-07T11:31:04;23.80;50.80
56729;DHT22;42612;52.232;7.560;2023-05-07T11:33:31;23.90;50.80
56729;DHT22;42612;52.232;7.560;2023-05-07T11:35:57;23.90;50.70
56729;DHT22;42612;52.232;7.560;2023-05-07T11:38:23;24.00;50.70
56729;DHT22;42612;52.232;7.560;2023-05-07T11:40:57;24.10;50.10
56729;DHT22;42612;52.232;7.560;2023-05-07T11:43:26;24.10;50.10
56729;DHT22;42612;52.232;7.560;2023-05-07T11:45:52;24.20;50.40
56729;DHT22;42612;52.232;7.560;2023-05-07T11:48:18;24.30;50.40
56729;DHT22;42612;52.232;7.560;2023-05-07T11:51:15;24.30;49.90
56729;DHT22;42612;52.232;7.560;2023-05-07T11:53:42;24.40;49.70
56729;DHT22;42612;52.232;7.560;2023-05-07T11:56:09;24.50;50.10
56729;DHT22;42612;52.232;7.560;2023-05-07T11:58:39;24.60;49.80
56729;DHT22;42612;52.232;7.560;2023-05-07T12:01:08;24.70;49.40
56729;DHT22;42612;52.232;7.560;2023-05-07T12:03:35;24.80;49.40
56729;DHT22;42612;52.232;7.560;2023-05-07T12:06:05;24.80;49.00
56729;DHT22;42612;52.232;7.560;2023-05-07T12:08:31;24.90;48.70
56729;DHT22;42612;52.232;7.560;2023-05-07T12:10:57;24.90;48.60
56729;DHT22;42612;52.232;7.560;2023-05-07T12:13:25;25.00;48.50
56729;DHT22;42612;52.232;7.560;2023-05-07T12:15:55;25.00;48.50
56729;DHT22;42612;52.232;7.560;2023-05-07T12:18:22;25.10;48.20
56729;DHT22;42612;52.232;7.560;2023-05-07T12:20:48;25.10;48.70
56729;DHT22;42612;52.232;7.560;2023-05-07T12:23:15;25.10;48.50
56729;DHT22;42612;52.232;7.560;2023-05-07T12:25:42;25.10;48.50
56729;DHT22;42612;52.232;7.560;2023-05-07T12:28:16;25.10;48.30
56729;DHT22;42612;52.232;7.560;2023-05-07T12:30:44;25.20;48.20
56729;DHT22;42612;52.232;7.560;2023-05-07T12:33:11;25.20;48.70
56729;DHT22;42612;52.232;7.560;2023-05-07T12:35:40;25.30;49.50
56729;DHT22;42612;52.232;7.560;2023-05-07T12:38:12;25.30;48.90
56729;DHT22;42612;52.232;7.560;2023-05-07T12:40:46;25.40;48.10
56729;DHT22;42612;52.232;7.560;2023-05-07T12:43:27;25.50;47.90
56729;DHT22;42612;52.232;7.560;2023-05-07T12:45:57;25.50;47.60
56729;DHT22;42612;52.232;7.560;2023-05-07T12:48:26;25.50;48.00
56729;DHT22;42612;52.232;7.560;2023-05-07T12:50:53;25.60;48.10
56729;DHT22;42612;52.232;7.560;2023-05-07T12:53:24;25.60;47.60
56729;DHT22;42612;52.232;7.560;2023-05-07T12:55:52;25.70;47.10
56729;DHT22;42612;52.232;7.560;2023-05-07T12:58:23;25.70;47.10
56729;DHT22;42612;52.232;7.560;2023-05-07T13:00:51;25.70;47.00
56729;DHT22;42612;52.232;7.560;2023-05-07T13:03:34;25.80;47.40
56729;DHT22;42612;52.232;7.560;2023-05-07T13:06:03;25.80;46.70
56729;DHT22;42612;52.232;7.560;2023-05-07T13:08:38;25.90;46.90
56729;DHT22;42612;52.232;7.560;2023-05-07T13:11:07;25.90;45.70
56729;DHT22;42612;52.232;7.560;2023-05-07T13:13:35;25.90;46.50
56729;DHT22;42612;52.232;7.560;2023-05-07T13:16:02;26.00;46.50
56729;DHT22;42612;52.232;7.560;2023-05-07T13:18:32;26.10;46.30
56729;DHT22;42612;52.232;7.560;2023-05-07T13:20:58;26.10;45.90
56729;DHT22;42612;52.232;7.560;2023-05-07T13:23:26;26.10;46.00
56729;DHT22;42612;52.232;7.560;2023-05-07T13:25:52;26.10;45.70
56729;DHT22;42612;52.232;7.560;2023-05-07T13:28:21;26.10;45.50
56729;DHT22;42612;52.232;7.560;2023-05-07T13:30:48;26.20;45.80
56729;DHT22;42612;52.232;7.560;2023-05-07T13:33:14;26.20;45.90
56729;DHT22;42612;52.232;7.560;2023-05-07T13:35:41;26.20;45.90
56729;DHT22;42612;52.232;7.560;2023-05-07T13:38:07;26.20;46.30
56729;DHT22;42612;52.232;7.560;2023-05-07T13:40:33;26.30;46.10
56729;DHT22;42612;52.232;7.560;2023-05-07T13:42:59;26.30;46.40
56729;DHT22;42612;52.232;7.560;2023-05-07T13:45:27;26.40;46.80
56729;DHT22;42612;52.232;7.560;2023-05-07T13:47:55;26.50;46.60
56729;DHT22;42612;52.232;7.560;2023-05-07T13:50:21;26.50;46.00
56729;DHT22;42612;52.232;7.560;2023-05-07T13:52:47;26.60;46.40
56729;DHT22;42612;52.232;7.560;2023-05-07T13:55:17;26.60;46.00
56729;DHT22;42612;52.232;7.560;2023-05-07T13:57:43;26.60;45.60
56729;DHT22;42612;52.232;7.560;2023-05-07T14:00:10;26.50;45.30
56729;DHT22;42612;52.232;7.560;2023-05-07T14:02:36;26.50;45.00
56729;DHT22;42612;52.232;7.560;2023-05-07T14:05:02;26.50;45.10
56729;DHT22;42612;52.232;7.560;2023-05-07T14:07:27;26.40;45.00
56729;DHT22;42612;52.232;7.560;2023-05-07T14:09:54;26.30;45.10
56729;DHT22;42612;52.232;7.560;2023-05-07T14:12:20;26.20;45.10
56729;DHT22;42612;52.232;7.560;2023-05-07T14:14:45;26.20;45.20
56729;DHT22;42612;52.232;7.560;2023-05-07T14:17:12;26.10;45.10
56729;DHT22;42612;52.232;7.560;2023-05-07T14:19:38;26.00;44.90
56729;DHT22;42612;52.232;7.560;2023-05-07T14:22:03;26.00;44.90
56729;DHT22;42612;52.232;7.560;2023-05-07T14:24:29;25.90;45.30
56729;DHT22;42612;52.232;7.560;2023-05-07T14:26:55;25.90;45.20
56729;DHT22;42612;52.232;7.560;2023-05-07T14:29:21;25.80;45.20
56729;DHT22;42612;52.232;7.560;2023-05-07T14:31:48;25.80;45.10
56729;DHT22;42612;52.232;7.560;2023-05-07T14:34:13;25.80;45.90
56729;DHT22;42612;52.232;7.560;2023-05-07T14:36:39;25.80;45.60
56729;DHT22;42612;52.232;7.560;2023-05-07T14:39:05;25.80;45.40
56729;DHT22;42612;52.232;7.560;2023-05-07T14:41:31;25.80;45.30
56729;DHT22;42612;52.232;7.560;2023-05-07T14:43:58;25.80;45.30
56729;DHT22;42612;52.232;7.560;2023-05-07T14:46:24;25.70;45.30
56729;DHT22;42612;52.232;7.560;2023-05-07T14:48:51;25.70;45.00
56729;DHT22;42612;52.232;7.560;2023-05-07T14:51:16;25.70;45.00
56729;DHT22;42612;52.232;7.560;2023-05-07T14:53:42;25.60;45.00
56729;DHT22;42612;52.232;7.560;2023-05-07T14:56:08;25.50;44.70
56729;DHT22;42612;52.232;7.560;2023-05-07T14:58:34;25.50;44.90
56729;DHT22;42612;52.232;7.560;2023-05-07T15:01:00;25.40;44.80
56729;DHT22;42612;52.232;7.560;2023-05-07T15:03:26;25.30;44.90
56729;DHT22;42612;52.232;7.560;2023-05-07T15:05:52;25.30;45.00
56729;DHT22;42612;52.232;7.560;2023-05-07T15:08:18;25.20;45.00
56729;DHT22;42612;52.232;7.560;2023-05-07T15:10:44;25.20;45.30
56729;DHT22;42612;52.232;7.560;2023-05-07T15:13:10;25.10;45.50
56729;DHT22;42612;52.232;7.560;2023-05-07T15:15:37;25.10;45.40
56729;DHT22;42612;52.232;7.560;2023-05-07T15:18:03;25.10;45.30
56729;DHT22;42612;52.232;7.560;2023-05-07T15:20:29;25.10;45.40
56729;DHT22;42612;52.232;7.560;2023-05-07T15:22:55;25.00;45.30
56729;DHT22;42612;52.232;7.560;2023-05-07T15:25:21;25.00;45.30
56729;DHT22;42612;52.232;7.560;2023-05-07T15:27:47;24.90;45.30
56729;DHT22;42612;52.232;7.560;2023-05-07T15:30:13;24.90;45.70
56729;DHT22;42612;52.232;7.560;2023-05-07T15:32:40;24.90;45.60
56729;DHT22;42612;52.232;7.560;2023-05-07T15:35:06;24.80;45.40
56729;DHT22;42612;52.232;7.560;2023-05-07T15:37:33;24.80;45.50
56729;DHT22;42612;52.232;7.560;2023-05-07T15:39:59;24.80;45.50
56729;DHT22;42612;52.232;7.560;2023-05-07T15:42:27;24.70;45.50
56729;DHT22;42612;52.232;7.560;2023-05-07T15:44:53;24.70;45.70
56729;DHT22;42612;52.232;7.560;2023-05-07T15:47:19;24.70;45.70
56729;DHT22;42612;52.232;7.560;2023-05-07T15:49:46;24.60;45.70